Airfield :
LOGIN :

Register | Disclaimer

   EN    FR    IT 

 










Legend :    VFR   Marginal VFR   IFR   Intensive IFR   Very Intensive IFR
Visi :
Ceiling :
>= 8 km
>= 3000ft
5 to 8 km
1000 to 3000 ft
1500m to 5 km
500 to 1000 ft
800 to 1500m
200 to 500 ft
< 800m
< 200 ft
Symbols :   Thunderstorms  Fog  Heavy snow  Heavy precipitations  Wind > 20 kt
SIGMETs :     Misc.  Thunderstorms  Icing  Turbulence  Mountain Waves  Volcanic Ashes






- Airport Elevation : 46 ft
- IATA code : SNN


EINN - Shannon

CURRENT METAR :
  • 241030Z 20005KT 9999 FEW008 SCT015 BKN022 06/06 Q1024 NOSIG

EXPIRED METARs :
  • 241000Z 19005KT 9999 -DZ SCT008 BKN012 BKN022 06/05 Q1024 NOSIG
  • 240930Z 18003KT 9999 FEW009 SCT012 BKN022 06/05 Q1024 NOSIG
  • 240900Z 14004KT 9999 FEW008 SCT013 BKN024 05/05 Q1024 NOSIG
  • 240830Z 16003KT 9999 FEW007 SCT012 BKN019 05/05 Q1024 NOSIG
  • 240800Z 15002KT 9999 -DZ FEW005 SCT011 BKN017 05/05 Q1024 NOSIG

TAF TAF EINN
Valid from the 24 at 06:00 until the 25 at 06:00 UTC


240500Z 2406/2506 VRB03KT 9999 FEW008 BKN025
PROB40
TEMPO 2406/2410 4000 BR BKN008
PROB30
TEMPO 2406/2409 0800 FG BKN002
BECMG 2410/2412 14005KT
TEMPO 2410/2506 BKN014
PROB30
TEMPO 2410/2506 4000 -DZ BKN010
BECMG 2423/2501 15010KT



MET'MAP, your aeronautical weather chart ! - Copyright ORBIFLY December 2007 - Disclaimer

ORBIFLY MET'MAP TEAM :

Programming & Development : Alexandra Zaïnal
Concept & original design : Baudouin d'Aumeries
Assistance for programming : Marc-Olivier Méhu
Technical & hardware support : Manuel Goepfert

Contact : metmap@orbifly.com




SOURCES & CREDITS :

   NOAA